sensor_id;sensor_type;location;lat;lon;timestamp;P1;durP1;ratioP1;P2;durP2;ratioP2
15295;SDS011;7749;49.964;7.890;2023-05-10T00:01:05;1.57;;;0.40;;
15295;SDS011;7749;49.964;7.890;2023-05-10T00:03:36;1.60;;;0.30;;
15295;SDS011;7749;49.964;7.890;2023-05-10T00:06:03;1.17;;;0.40;;
15295;SDS011;7749;49.964;7.890;2023-05-10T00:08:31;2.67;;;0.40;;
15295;SDS011;7749;49.964;7.890;2023-05-10T00:10:59;0.47;;;0.27;;
15295;SDS011;7749;49.964;7.890;2023-05-10T00:13:27;0.80;;;0.40;;
15295;SDS011;7749;49.964;7.890;2023-05-10T00:15:55;1.40;;;0.23;;
15295;SDS011;7749;49.964;7.890;2023-05-10T00:18:22;0.50;;;0.40;;
15295;SDS011;7749;49.964;7.890;2023-05-10T00:20:50;3.10;;;0.40;;
15295;SDS011;7749;49.964;7.890;2023-05-10T00:23:21;1.20;;;0.30;;
15295;SDS011;7749;49.964;7.890;2023-05-10T00:25:48;1.37;;;0.40;;
15295;SDS011;7749;49.964;7.890;2023-05-10T00:28:19;0.30;;;0.30;;
15295;SDS011;7749;49.964;7.890;2023-05-10T00:30:47;2.23;;;0.40;;
15295;SDS011;7749;49.964;7.890;2023-05-10T00:33:14;0.43;;;0.20;;
15295;SDS011;7749;49.964;7.890;2023-05-10T00:35:42;1.73;;;0.40;;
15295;SDS011;7749;49.964;7.890;2023-05-10T00:38:12;0.30;;;0.20;;
15295;SDS011;7749;49.964;7.890;2023-05-10T00:40:39;0.83;;;0.40;;
15295;SDS011;7749;49.964;7.890;2023-05-10T00:43:07;4.13;;;0.30;;
15295;SDS011;7749;49.964;7.890;2023-05-10T00:45:35;1.03;;;0.30;;
15295;SDS011;7749;49.964;7.890;2023-05-10T00:48:04;0.73;;;0.40;;
15295;SDS011;7749;49.964;7.890;2023-05-10T00:50:32;1.43;;;0.40;;
15295;SDS011;7749;49.964;7.890;2023-05-10T00:53:00;0.67;;;0.30;;
15295;SDS011;7749;49.964;7.890;2023-05-10T00:55:32;2.17;;;0.40;;
15295;SDS011;7749;49.964;7.890;2023-05-10T00:58:00;0.87;;;0.30;;
15295;SDS011;7749;49.964;7.890;2023-05-10T01:00:28;2.23;;;0.40;;
15295;SDS011;7749;49.964;7.890;2023-05-10T01:02:56;0.40;;;0.30;;
15295;SDS011;7749;49.964;7.890;2023-05-10T01:05:25;0.20;;;0.20;;
15295;SDS011;7749;49.964;7.890;2023-05-10T01:07:54;0.30;;;0.30;;
15295;SDS011;7749;49.964;7.890;2023-05-10T01:10:23;0.30;;;0.30;;
15295;SDS011;7749;49.964;7.890;2023-05-10T01:12:51;2.10;;;0.40;;
15295;SDS011;7749;49.964;7.890;2023-05-10T01:15:18;2.43;;;0.40;;
15295;SDS011;7749;49.964;7.890;2023-05-10T01:17:47;4.60;;;0.40;;
15295;SDS011;7749;49.964;7.890;2023-05-10T01:20:16;1.03;;;0.33;;
15295;SDS011;7749;49.964;7.890;2023-05-10T01:34:08;0.50;;;0.20;;
15295;SDS011;7749;49.964;7.890;2023-05-10T01:36:41;1.10;;;0.40;;
15295;SDS011;7749;49.964;7.890;2023-05-10T01:39:20;2.03;;;0.50;;
15295;SDS011;7749;49.964;7.890;2023-05-10T01:47:11;0.40;;;0.40;;
15295;SDS011;7749;49.964;7.890;2023-05-10T01:50:03;1.53;;;0.40;;
15295;SDS011;7749;49.964;7.890;2023-05-10T01:52:36;0.93;;;0.50;;
15295;SDS011;7749;49.964;7.890;2023-05-10T01:55:09;1.03;;;0.50;;
15295;SDS011;7749;49.964;7.890;2023-05-10T01:57:43;0.77;;;0.50;;
15295;SDS011;7749;49.964;7.890;2023-05-10T02:00:13;2.33;;;0.60;;
15295;SDS011;7749;49.964;7.890;2023-05-10T02:02:44;0.90;;;0.60;;
15295;SDS011;7749;49.964;7.890;2023-05-10T02:05:17;4.73;;;0.77;;
15295;SDS011;7749;49.964;7.890;2023-05-10T02:07:46;1.47;;;0.50;;
15295;SDS011;7749;49.964;7.890;2023-05-10T02:10:14;5.30;;;0.77;;
15295;SDS011;7749;49.964;7.890;2023-05-10T02:12:44;3.70;;;0.67;;
15295;SDS011;7749;49.964;7.890;2023-05-10T02:15:17;2.83;;;0.60;;
15295;SDS011;7749;49.964;7.890;2023-05-10T02:17:54;0.60;;;0.53;;
15295;SDS011;7749;49.964;7.890;2023-05-10T02:20:25;1.20;;;0.50;;
15295;SDS011;7749;49.964;7.890;2023-05-10T02:22:56;1.33;;;0.60;;
15295;SDS011;7749;49.964;7.890;2023-05-10T02:25:25;1.00;;;0.50;;
15295;SDS011;7749;49.964;7.890;2023-05-10T02:27:54;2.20;;;0.60;;
15295;SDS011;7749;49.964;7.890;2023-05-10T02:30:23;1.17;;;0.70;;
15295;SDS011;7749;49.964;7.890;2023-05-10T02:32:55;2.00;;;0.70;;
15295;SDS011;7749;49.964;7.890;2023-05-10T02:35:24;4.27;;;0.70;;
15295;SDS011;7749;49.964;7.890;2023-05-10T02:37:53;0.63;;;0.60;;
15295;SDS011;7749;49.964;7.890;2023-05-10T02:40:21;2.07;;;0.80;;
15295;SDS011;7749;49.964;7.890;2023-05-10T02:42:55;2.37;;;0.90;;
15295;SDS011;7749;49.964;7.890;2023-05-10T02:45:27;2.60;;;0.80;;
15295;SDS011;7749;49.964;7.890;2023-05-10T02:47:58;3.00;;;0.80;;
15295;SDS011;7749;49.964;7.890;2023-05-10T02:50:27;2.63;;;0.60;;
15295;SDS011;7749;49.964;7.890;2023-05-10T02:53:03;0.80;;;0.80;;
15295;SDS011;7749;49.964;7.890;2023-05-10T02:55:40;1.53;;;0.97;;
15295;SDS011;7749;49.964;7.890;2023-05-10T02:58:14;1.60;;;1.50;;
15295;SDS011;7749;49.964;7.890;2023-05-10T03:00:42;1.00;;;0.90;;
15295;SDS011;7749;49.964;7.890;2023-05-10T03:03:10;1.97;;;0.90;;
15295;SDS011;7749;49.964;7.890;2023-05-10T03:05:41;3.10;;;0.83;;
15295;SDS011;7749;49.964;7.890;2023-05-10T03:08:08;3.30;;;1.07;;
15295;SDS011;7749;49.964;7.890;2023-05-10T03:10:41;2.47;;;1.00;;
15295;SDS011;7749;49.964;7.890;2023-05-10T03:13:39;3.03;;;1.10;;
15295;SDS011;7749;49.964;7.890;2023-05-10T03:16:21;1.90;;;1.00;;
15295;SDS011;7749;49.964;7.890;2023-05-10T03:19:02;1.60;;;0.77;;
15295;SDS011;7749;49.964;7.890;2023-05-10T03:21:39;4.20;;;1.23;;
15295;SDS011;7749;49.964;7.890;2023-05-10T03:24:10;0.97;;;0.97;;
15295;SDS011;7749;49.964;7.890;2023-05-10T03:26:43;1.10;;;1.00;;
15295;SDS011;7749;49.964;7.890;2023-05-10T03:29:12;3.17;;;0.90;;
15295;SDS011;7749;49.964;7.890;2023-05-10T03:31:41;1.97;;;0.80;;
15295;SDS011;7749;49.964;7.890;2023-05-10T03:34:09;3.30;;;0.97;;
15295;SDS011;7749;49.964;7.890;2023-05-10T03:36:37;1.97;;;0.90;;
15295;SDS011;7749;49.964;7.890;2023-05-10T03:39:05;1.50;;;1.40;;
15295;SDS011;7749;49.964;7.890;2023-05-10T03:41:33;1.43;;;1.00;;
15295;SDS011;7749;49.964;7.890;2023-05-10T03:44:06;2.13;;;1.40;;
15295;SDS011;7749;49.964;7.890;2023-05-10T03:46:33;1.40;;;1.27;;
15295;SDS011;7749;49.964;7.890;2023-05-10T03:49:01;2.23;;;1.20;;
15295;SDS011;7749;49.964;7.890;2023-05-10T03:51:32;1.57;;;1.20;;
15295;SDS011;7749;49.964;7.890;2023-05-10T03:53:59;3.07;;;1.30;;
15295;SDS011;7749;49.964;7.890;2023-05-10T03:56:27;3.00;;;1.40;;
15295;SDS011;7749;49.964;7.890;2023-05-10T03:58:55;1.77;;;1.30;;
15295;SDS011;7749;49.964;7.890;2023-05-10T04:01:23;1.47;;;1.37;;
15295;SDS011;7749;49.964;7.890;2023-05-10T04:06:46;1.30;;;1.20;;
15295;SDS011;7749;49.964;7.890;2023-05-10T04:09:16;1.57;;;1.10;;
15295;SDS011;7749;49.964;7.890;2023-05-10T04:11:44;2.93;;;1.30;;
15295;SDS011;7749;49.964;7.890;2023-05-10T04:14:12;3.80;;;1.47;;
15295;SDS011;7749;49.964;7.890;2023-05-10T04:16:39;4.17;;;1.27;;
15295;SDS011;7749;49.964;7.890;2023-05-10T04:19:07;2.67;;;1.40;;
15295;SDS011;7749;49.964;7.890;2023-05-10T04:21:35;5.03;;;1.57;;
15295;SDS011;7749;49.964;7.890;2023-05-10T04:24:03;4.30;;;1.63;;
15295;SDS011;7749;49.964;7.890;2023-05-10T04:26:31;2.40;;;1.60;;
15295;SDS011;7749;49.964;7.890;2023-05-10T04:28:59;3.80;;;1.50;;
15295;SDS011;7749;49.964;7.890;2023-05-10T04:31:26;2.33;;;1.33;;
15295;SDS011;7749;49.964;7.890;2023-05-10T04:33:55;2.63;;;1.40;;
15295;SDS011;7749;49.964;7.890;2023-05-10T04:36:23;3.37;;;1.60;;
15295;SDS011;7749;49.964;7.890;2023-05-10T04:38:50;3.33;;;1.60;;
15295;SDS011;7749;49.964;7.890;2023-05-10T04:41:22;4.43;;;1.47;;
15295;SDS011;7749;49.964;7.890;2023-05-10T04:43:49;4.53;;;1.90;;
15295;SDS011;7749;49.964;7.890;2023-05-10T04:46:17;5.83;;;1.70;;
15295;SDS011;7749;49.964;7.890;2023-05-10T04:48:45;3.50;;;1.57;;
15295;SDS011;7749;49.964;7.890;2023-05-10T04:51:18;3.43;;;2.20;;
15295;SDS011;7749;49.964;7.890;2023-05-10T04:53:48;5.27;;;2.40;;
15295;SDS011;7749;49.964;7.890;2023-05-10T04:56:31;3.77;;;1.60;;
15295;SDS011;7749;49.964;7.890;2023-05-10T04:58:59;4.30;;;1.73;;
15295;SDS011;7749;49.964;7.890;2023-05-10T05:01:30;3.20;;;1.63;;
15295;SDS011;7749;49.964;7.890;2023-05-10T05:03:58;2.57;;;1.47;;
15295;SDS011;7749;49.964;7.890;2023-05-10T05:06:26;5.00;;;3.10;;
15295;SDS011;7749;49.964;7.890;2023-05-10T05:08:54;3.77;;;1.80;;
15295;SDS011;7749;49.964;7.890;2023-05-10T05:11:22;4.17;;;2.13;;
15295;SDS011;7749;49.964;7.890;2023-05-10T05:13:52;6.67;;;2.30;;
15295;SDS011;7749;49.964;7.890;2023-05-10T05:16:20;4.97;;;2.27;;
15295;SDS011;7749;49.964;7.890;2023-05-10T05:18:48;3.83;;;1.97;;
15295;SDS011;7749;49.964;7.890;2023-05-10T05:21:16;3.97;;;1.90;;
15295;SDS011;7749;49.964;7.890;2023-05-10T05:23:48;5.87;;;2.30;;
15295;SDS011;7749;49.964;7.890;2023-05-10T05:26:21;3.87;;;1.93;;
15295;SDS011;7749;49.964;7.890;2023-05-10T05:28:48;6.57;;;2.40;;
15295;SDS011;7749;49.964;7.890;2023-05-10T05:31:19;5.47;;;2.33;;
15295;SDS011;7749;49.964;7.890;2023-05-10T05:33:48;6.37;;;2.00;;
15295;SDS011;7749;49.964;7.890;2023-05-10T05:36:16;4.57;;;1.93;;
15295;SDS011;7749;49.964;7.890;2023-05-10T05:38:43;5.47;;;2.17;;
15295;SDS011;7749;49.964;7.890;2023-05-10T05:41:13;3.17;;;2.00;;
15295;SDS011;7749;49.964;7.890;2023-05-10T05:43:44;4.93;;;2.17;;
15295;SDS011;7749;49.964;7.890;2023-05-10T05:46:12;4.53;;;2.10;;
15295;SDS011;7749;49.964;7.890;2023-05-10T05:48:40;6.10;;;2.20;;
15295;SDS011;7749;49.964;7.890;2023-05-10T05:51:10;3.30;;;2.10;;
15295;SDS011;7749;49.964;7.890;2023-05-10T05:53:41;4.80;;;2.50;;
15295;SDS011;7749;49.964;7.890;2023-05-10T05:56:08;4.00;;;2.10;;
15295;SDS011;7749;49.964;7.890;2023-05-10T05:58:36;6.00;;;2.40;;
15295;SDS011;7749;49.964;7.890;2023-05-10T06:01:04;5.23;;;2.03;;
15295;SDS011;7749;49.964;7.890;2023-05-10T06:03:33;3.23;;;2.27;;
15295;SDS011;7749;49.964;7.890;2023-05-10T06:06:03;8.17;;;2.70;;
15295;SDS011;7749;49.964;7.890;2023-05-10T06:08:30;4.27;;;2.30;;
15295;SDS011;7749;49.964;7.890;2023-05-10T06:10:59;5.83;;;2.53;;
15295;SDS011;7749;49.964;7.890;2023-05-10T06:13:27;5.30;;;2.20;;
15295;SDS011;7749;49.964;7.890;2023-05-10T06:16:00;2.43;;;1.93;;
15295;SDS011;7749;49.964;7.890;2023-05-10T06:18:34;7.57;;;2.73;;
15295;SDS011;7749;49.964;7.890;2023-05-10T06:21:01;4.00;;;2.20;;
15295;SDS011;7749;49.964;7.890;2023-05-10T06:23:29;3.03;;;1.70;;
15295;SDS011;7749;49.964;7.890;2023-05-10T06:25:58;4.80;;;1.80;;
15295;SDS011;7749;49.964;7.890;2023-05-10T06:28:26;8.47;;;2.03;;
15295;SDS011;7749;49.964;7.890;2023-05-10T06:30:57;4.23;;;2.03;;
15295;SDS011;7749;49.964;7.890;2023-05-10T06:33:25;3.42;;;1.75;;
15295;SDS011;7749;49.964;7.890;2023-05-10T06:35:53;3.60;;;1.80;;
15295;SDS011;7749;49.964;7.890;2023-05-10T06:38:21;5.13;;;2.13;;
15295;SDS011;7749;49.964;7.890;2023-05-10T06:40:49;4.83;;;2.13;;
15295;SDS011;7749;49.964;7.890;2023-05-10T06:43:20;2.67;;;1.80;;
15295;SDS011;7749;49.964;7.890;2023-05-10T06:45:48;2.77;;;2.00;;
15295;SDS011;7749;49.964;7.890;2023-05-10T06:48:15;3.37;;;1.80;;
15295;SDS011;7749;49.964;7.890;2023-05-10T06:50:43;3.47;;;2.00;;
15295;SDS011;7749;49.964;7.890;2023-05-10T06:53:11;3.00;;;1.70;;
15295;SDS011;7749;49.964;7.890;2023-05-10T06:55:40;5.37;;;2.20;;
15295;SDS011;7749;49.964;7.890;2023-05-10T06:58:09;3.00;;;1.90;;
15295;SDS011;7749;49.964;7.890;2023-05-10T07:00:36;4.70;;;2.20;;
15295;SDS011;7749;49.964;7.890;2023-05-10T07:03:07;5.70;;;2.57;;
15295;SDS011;7749;49.964;7.890;2023-05-10T07:05:35;4.33;;;2.00;;
15295;SDS011;7749;49.964;7.890;2023-05-10T07:08:03;4.87;;;1.90;;
15295;SDS011;7749;49.964;7.890;2023-05-10T07:10:33;3.17;;;1.90;;
15295;SDS011;7749;49.964;7.890;2023-05-10T07:13:01;4.13;;;2.00;;
15295;SDS011;7749;49.964;7.890;2023-05-10T07:15:29;5.53;;;2.10;;
15295;SDS011;7749;49.964;7.890;2023-05-10T07:17:56;3.20;;;2.10;;
15295;SDS011;7749;49.964;7.890;2023-05-10T07:20:24;3.93;;;1.90;;
15295;SDS011;7749;49.964;7.890;2023-05-10T07:23:01;6.77;;;2.37;;
15295;SDS011;7749;49.964;7.890;2023-05-10T07:25:31;4.25;;;1.92;;
15295;SDS011;7749;49.964;7.890;2023-05-10T07:27:59;4.40;;;1.85;;
15295;SDS011;7749;49.964;7.890;2023-05-10T07:30:36;6.43;;;1.80;;
15295;SDS011;7749;49.964;7.890;2023-05-10T07:33:04;2.50;;;1.53;;
15295;SDS011;7749;49.964;7.890;2023-05-10T07:35:32;6.10;;;1.85;;
15295;SDS011;7749;49.964;7.890;2023-05-10T07:38:00;4.30;;;1.65;;
15295;SDS011;7749;49.964;7.890;2023-05-10T07:40:31;3.17;;;1.42;;
15295;SDS011;7749;49.964;7.890;2023-05-10T07:42:59;4.57;;;1.70;;
15295;SDS011;7749;49.964;7.890;2023-05-10T07:45:28;4.05;;;1.60;;
15295;SDS011;7749;49.964;7.890;2023-05-10T07:47:56;3.33;;;1.10;;
15295;SDS011;7749;49.964;7.890;2023-05-10T07:50:24;2.50;;;1.05;;
15295;SDS011;7749;49.964;7.890;2023-05-10T07:52:52;3.17;;;1.65;;
15295;SDS011;7749;49.964;7.890;2023-05-10T07:55:20;2.67;;;0.98;;
15295;SDS011;7749;49.964;7.890;2023-05-10T07:57:48;2.90;;;1.27;;
15295;SDS011;7749;49.964;7.890;2023-05-10T08:00:17;1.70;;;0.95;;
15295;SDS011;7749;49.964;7.890;2023-05-10T08:02:54;3.65;;;1.20;;
15295;SDS011;7749;49.964;7.890;2023-05-10T08:05:22;1.58;;;1.00;;
15295;SDS011;7749;49.964;7.890;2023-05-10T08:07:50;1.80;;;1.00;;
15295;SDS011;7749;49.964;7.890;2023-05-10T08:10:22;1.13;;;1.00;;
15295;SDS011;7749;49.964;7.890;2023-05-10T08:13:00;4.55;;;1.10;;
15295;SDS011;7749;49.964;7.890;2023-05-10T08:15:31;2.28;;;0.85;;
15295;SDS011;7749;49.964;7.890;2023-05-10T08:17:59;1.42;;;0.80;;
15295;SDS011;7749;49.964;7.890;2023-05-10T08:20:27;2.35;;;1.02;;
15295;SDS011;7749;49.964;7.890;2023-05-10T08:22:55;1.85;;;1.00;;
15295;SDS011;7749;49.964;7.890;2023-05-10T08:25:25;4.05;;;0.93;;
15295;SDS011;7749;49.964;7.890;2023-05-10T08:27:53;1.55;;;0.88;;
15295;SDS011;7749;49.964;7.890;2023-05-10T08:30:21;1.70;;;0.90;;
15295;SDS011;7749;49.964;7.890;2023-05-10T08:32:49;1.98;;;0.88;;
15295;SDS011;7749;49.964;7.890;2023-05-10T08:35:19;2.40;;;1.13;;
15295;SDS011;7749;49.964;7.890;2023-05-10T08:38:01;3.00;;;1.10;;
15295;SDS011;7749;49.964;7.890;2023-05-10T08:40:29;2.42;;;1.27;;
15295;SDS011;7749;49.964;7.890;2023-05-10T08:43:02;1.47;;;0.60;;
15295;SDS011;7749;49.964;7.890;2023-05-10T08:45:37;2.23;;;0.70;;
15295;SDS011;7749;49.964;7.890;2023-05-10T08:48:07;2.08;;;0.68;;
15295;SDS011;7749;49.964;7.890;2023-05-10T08:50:36;1.00;;;0.57;;
15295;SDS011;7749;49.964;7.890;2023-05-10T08:53:12;0.60;;;0.40;;
15295;SDS011;7749;49.964;7.890;2023-05-10T08:55:42;1.70;;;0.60;;
15295;SDS011;7749;49.964;7.890;2023-05-10T08:58:29;1.63;;;0.40;;
15295;SDS011;7749;49.964;7.890;2023-05-10T09:00:57;0.90;;;0.40;;
15295;SDS011;7749;49.964;7.890;2023-05-10T09:03:26;1.43;;;0.40;;
15295;SDS011;7749;49.964;7.890;2023-05-10T09:05:55;0.77;;;0.50;;
15295;SDS011;7749;49.964;7.890;2023-05-10T09:08:25;1.63;;;0.50;;
15295;SDS011;7749;49.964;7.890;2023-05-10T09:10:53;0.40;;;0.33;;
15295;SDS011;7749;49.964;7.890;2023-05-10T09:13:22;0.47;;;0.40;;
15295;SDS011;7749;49.964;7.890;2023-05-10T09:15:51;2.67;;;0.55;;
15295;SDS011;7749;49.964;7.890;2023-05-10T09:18:26;1.15;;;0.43;;
15295;SDS011;7749;49.964;7.890;2023-05-10T09:20:54;0.82;;;0.40;;
15295;SDS011;7749;49.964;7.890;2023-05-10T09:23:22;0.47;;;0.30;;
15295;SDS011;7749;49.964;7.890;2023-05-10T09:26:01;1.75;;;0.40;;
15295;SDS011;7749;49.964;7.890;2023-05-10T09:28:34;0.50;;;0.43;;
15295;SDS011;7749;49.964;7.890;2023-05-10T09:31:16;0.32;;;0.32;;
15295;SDS011;7749;49.964;7.890;2023-05-10T09:33:48;1.50;;;0.40;;
15295;SDS011;7749;49.964;7.890;2023-05-10T09:36:16;1.05;;;0.40;;
15295;SDS011;7749;49.964;7.890;2023-05-10T09:38:48;1.58;;;0.40;;
15295;SDS011;7749;49.964;7.890;2023-05-10T09:41:19;3.67;;;0.40;;
15295;SDS011;7749;49.964;7.890;2023-05-10T09:43:48;1.30;;;0.43;;
15295;SDS011;7749;49.964;7.890;2023-05-10T09:46:16;1.05;;;0.55;;
15295;SDS011;7749;49.964;7.890;2023-05-10T09:48:45;0.45;;;0.45;;
15295;SDS011;7749;49.964;7.890;2023-05-10T09:51:21;1.40;;;0.70;;
15295;SDS011;7749;49.964;7.890;2023-05-10T09:54:09;0.88;;;0.50;;
15295;SDS011;7749;49.964;7.890;2023-05-10T09:56:37;0.80;;;0.50;;
15295;SDS011;7749;49.964;7.890;2023-05-10T09:59:08;2.10;;;0.70;;
15295;SDS011;7749;49.964;7.890;2023-05-10T10:01:38;1.45;;;0.50;;
15295;SDS011;7749;49.964;7.890;2023-05-10T10:04:06;0.50;;;0.50;;
15295;SDS011;7749;49.964;7.890;2023-05-10T10:06:36;1.15;;;1.15;;
15295;SDS011;7749;49.964;7.890;2023-05-10T10:09:05;1.02;;;0.50;;
15295;SDS011;7749;49.964;7.890;2023-05-10T10:11:38;1.77;;;0.50;;
15295;SDS011;7749;49.964;7.890;2023-05-10T10:14:06;1.23;;;0.47;;
15295;SDS011;7749;49.964;7.890;2023-05-10T10:16:34;0.73;;;0.50;;
15295;SDS011;7749;49.964;7.890;2023-05-10T10:19:02;1.73;;;0.60;;
15295;SDS011;7749;49.964;7.890;2023-05-10T10:21:30;1.55;;;0.52;;
15295;SDS011;7749;49.964;7.890;2023-05-10T10:23:59;3.53;;;0.50;;
15295;SDS011;7749;49.964;7.890;2023-05-10T10:26:27;0.52;;;0.47;;
15295;SDS011;7749;49.964;7.890;2023-05-10T10:29:09;1.33;;;0.40;;
15295;SDS011;7749;49.964;7.890;2023-05-10T10:34:38;0.50;;;0.50;;
15295;SDS011;7749;49.964;7.890;2023-05-10T10:37:06;0.60;;;0.50;;
15295;SDS011;7749;49.964;7.890;2023-05-10T10:39:34;2.55;;;0.50;;
15295;SDS011;7749;49.964;7.890;2023-05-10T10:42:04;0.57;;;0.50;;
15295;SDS011;7749;49.964;7.890;2023-05-10T10:44:34;1.27;;;0.60;;
15295;SDS011;7749;49.964;7.890;2023-05-10T10:50:21;0.80;;;0.47;;
15295;SDS011;7749;49.964;7.890;2023-05-10T10:53:11;0.55;;;0.50;;
15295;SDS011;7749;49.964;7.890;2023-05-10T10:55:47;1.42;;;0.60;;
15295;SDS011;7749;49.964;7.890;2023-05-10T10:58:30;0.70;;;0.50;;
15295;SDS011;7749;49.964;7.890;2023-05-10T11:01:11;0.60;;;0.30;;
15295;SDS011;7749;49.964;7.890;2023-05-10T11:03:41;0.40;;;0.40;;
15295;SDS011;7749;49.964;7.890;2023-05-10T11:06:34;0.30;;;0.30;;
15295;SDS011;7749;49.964;7.890;2023-05-10T11:09:10;1.27;;;0.50;;
15295;SDS011;7749;49.964;7.890;2023-05-10T11:11:48;0.75;;;0.40;;
15295;SDS011;7749;49.964;7.890;2023-05-10T11:14:22;1.52;;;0.60;;
15295;SDS011;7749;49.964;7.890;2023-05-10T11:16:50;1.50;;;0.70;;
15295;SDS011;7749;49.964;7.890;2023-05-10T11:19:18;1.10;;;0.57;;
15295;SDS011;7749;49.964;7.890;2023-05-10T11:24:32;1.52;;;0.50;;
15295;SDS011;7749;49.964;7.890;2023-05-10T11:27:00;0.43;;;0.32;;
15295;SDS011;7749;49.964;7.890;2023-05-10T11:29:28;0.93;;;0.68;;
15295;SDS011;7749;49.964;7.890;2023-05-10T11:31:56;1.20;;;0.60;;
15295;SDS011;7749;49.964;7.890;2023-05-10T11:34:26;1.33;;;0.57;;
15295;SDS011;7749;49.964;7.890;2023-05-10T11:37:00;1.70;;;0.65;;
15295;SDS011;7749;49.964;7.890;2023-05-10T11:39:29;0.90;;;0.50;;
15295;SDS011;7749;49.964;7.890;2023-05-10T11:41:57;1.60;;;0.40;;
15295;SDS011;7749;49.964;7.890;2023-05-10T11:44:31;0.68;;;0.38;;
15295;SDS011;7749;49.964;7.890;2023-05-10T11:47:00;0.85;;;0.40;;
15295;SDS011;7749;49.964;7.890;2023-05-10T11:49:28;0.47;;;0.38;;
15295;SDS011;7749;49.964;7.890;2023-05-10T11:52:07;0.32;;;0.30;;
15295;SDS011;7749;49.964;7.890;2023-05-10T11:54:35;0.63;;;0.40;;
15295;SDS011;7749;49.964;7.890;2023-05-10T11:57:03;0.47;;;0.40;;
15295;SDS011;7749;49.964;7.890;2023-05-10T11:59:31;0.45;;;0.30;;
15295;SDS011;7749;49.964;7.890;2023-05-10T12:01:59;1.10;;;0.50;;
15295;SDS011;7749;49.964;7.890;2023-05-10T12:04:27;0.40;;;0.40;;
15295;SDS011;7749;49.964;7.890;2023-05-10T12:06:56;2.85;;;0.30;;
15295;SDS011;7749;49.964;7.890;2023-05-10T12:09:24;0.38;;;0.20;;
15295;SDS011;7749;49.964;7.890;2023-05-10T12:12:09;0.40;;;0.30;;
15295;SDS011;7749;49.964;7.890;2023-05-10T12:14:37;0.80;;;0.30;;
15295;SDS011;7749;49.964;7.890;2023-05-10T12:17:05;4.13;;;0.32;;
15295;SDS011;7749;49.964;7.890;2023-05-10T12:19:39;1.13;;;0.47;;
15295;SDS011;7749;49.964;7.890;2023-05-10T12:22:06;0.93;;;0.45;;
15295;SDS011;7749;49.964;7.890;2023-05-10T12:24:34;2.38;;;0.40;;
15295;SDS011;7749;49.964;7.890;2023-05-10T12:27:07;1.02;;;0.52;;
15295;SDS011;7749;49.964;7.890;2023-05-10T12:29:35;0.68;;;0.40;;
15295;SDS011;7749;49.964;7.890;2023-05-10T12:32:03;1.27;;;0.50;;
15295;SDS011;7749;49.964;7.890;2023-05-10T12:34:32;0.60;;;0.40;;
15295;SDS011;7749;49.964;7.890;2023-05-10T12:37:04;1.48;;;0.60;;
15295;SDS011;7749;49.964;7.890;2023-05-10T12:39:41;1.02;;;1.02;;
15295;SDS011;7749;49.964;7.890;2023-05-10T12:42:11;0.47;;;0.40;;
15295;SDS011;7749;49.964;7.890;2023-05-10T12:44:39;1.13;;;0.50;;
15295;SDS011;7749;49.964;7.890;2023-05-10T12:47:07;0.50;;;0.50;;
15295;SDS011;7749;49.964;7.890;2023-05-10T12:49:34;1.75;;;0.50;;
15295;SDS011;7749;49.964;7.890;2023-05-10T12:52:02;0.70;;;0.40;;
15295;SDS011;7749;49.964;7.890;2023-05-10T12:54:30;1.55;;;0.40;;
15295;SDS011;7749;49.964;7.890;2023-05-10T12:56:57;0.98;;;0.60;;
15295;SDS011;7749;49.964;7.890;2023-05-10T12:59:25;0.50;;;0.47;;
15295;SDS011;7749;49.964;7.890;2023-05-10T13:01:53;1.27;;;0.50;;
15295;SDS011;7749;49.964;7.890;2023-05-10T13:04:20;2.20;;;0.45;;
15295;SDS011;7749;49.964;7.890;2023-05-10T13:06:48;0.65;;;0.40;;
15295;SDS011;7749;49.964;7.890;2023-05-10T13:09:16;1.05;;;0.70;;
15295;SDS011;7749;49.964;7.890;2023-05-10T13:11:43;1.65;;;0.57;;
15295;SDS011;7749;49.964;7.890;2023-05-10T13:14:12;1.45;;;0.60;;
15295;SDS011;7749;49.964;7.890;2023-05-10T13:16:40;1.20;;;0.60;;
15295;SDS011;7749;49.964;7.890;2023-05-10T13:19:08;2.85;;;0.70;;
15295;SDS011;7749;49.964;7.890;2023-05-10T13:21:35;1.42;;;0.80;;
15295;SDS011;7749;49.964;7.890;2023-05-10T13:24:03;0.55;;;0.43;;
15295;SDS011;7749;49.964;7.890;2023-05-10T13:26:35;1.85;;;0.70;;
15295;SDS011;7749;49.964;7.890;2023-05-10T13:29:03;1.90;;;0.70;;
15295;SDS011;7749;49.964;7.890;2023-05-10T13:31:31;1.75;;;0.68;;
15295;SDS011;7749;49.964;7.890;2023-05-10T13:33:58;1.67;;;0.80;;
15295;SDS011;7749;49.964;7.890;2023-05-10T13:36:26;0.63;;;0.57;;
15295;SDS011;7749;49.964;7.890;2023-05-10T13:38:56;2.08;;;0.70;;
15295;SDS011;7749;49.964;7.890;2023-05-10T13:41:24;1.33;;;0.68;;
15295;SDS011;7749;49.964;7.890;2023-05-10T13:43:52;0.90;;;0.50;;
15295;SDS011;7749;49.964;7.890;2023-05-10T13:46:19;0.98;;;0.68;;
15295;SDS011;7749;49.964;7.890;2023-05-10T13:48:47;0.93;;;0.70;;
15295;SDS011;7749;49.964;7.890;2023-05-10T13:51:15;2.40;;;0.90;;
15295;SDS011;7749;49.964;7.890;2023-05-10T13:53:42;1.63;;;0.70;;
15295;SDS011;7749;49.964;7.890;2023-05-10T13:56:10;1.45;;;0.70;;
15295;SDS011;7749;49.964;7.890;2023-05-10T13:58:38;3.05;;;0.70;;
15295;SDS011;7749;49.964;7.890;2023-05-10T14:01:06;1.85;;;0.70;;
15295;SDS011;7749;49.964;7.890;2023-05-10T14:03:34;2.70;;;0.88;;
15295;SDS011;7749;49.964;7.890;2023-05-10T14:06:01;3.60;;;0.82;;
15295;SDS011;7749;49.964;7.890;2023-05-10T14:08:29;2.40;;;0.73;;
15295;SDS011;7749;49.964;7.890;2023-05-10T14:10:57;1.92;;;0.85;;
15295;SDS011;7749;49.964;7.890;2023-05-10T14:13:24;1.95;;;0.55;;
15295;SDS011;7749;49.964;7.890;2023-05-10T14:15:52;1.27;;;0.70;;
15295;SDS011;7749;49.964;7.890;2023-05-10T14:18:20;2.10;;;0.82;;
15295;SDS011;7749;49.964;7.890;2023-05-10T14:20:48;1.15;;;0.70;;
15295;SDS011;7749;49.964;7.890;2023-05-10T14:23:16;2.70;;;0.80;;
15295;SDS011;7749;49.964;7.890;2023-05-10T14:25:47;4.25;;;0.93;;
15295;SDS011;7749;49.964;7.890;2023-05-10T14:28:14;2.88;;;1.00;;
15295;SDS011;7749;49.964;7.890;2023-05-10T14:30:43;1.63;;;0.90;;
15295;SDS011;7749;49.964;7.890;2023-05-10T14:33:10;1.88;;;0.98;;
15295;SDS011;7749;49.964;7.890;2023-05-10T14:35:43;4.55;;;1.08;;
15295;SDS011;7749;49.964;7.890;2023-05-10T14:38:15;2.45;;;0.60;;
15295;SDS011;7749;49.964;7.890;2023-05-10T14:40:44;2.03;;;0.85;;
15295;SDS011;7749;49.964;7.890;2023-05-10T14:43:12;2.20;;;0.90;;
15295;SDS011;7749;49.964;7.890;2023-05-10T14:45:40;2.08;;;0.75;;
15295;SDS011;7749;49.964;7.890;2023-05-10T14:48:08;1.27;;;0.63;;
15295;SDS011;7749;49.964;7.890;2023-05-10T14:50:39;1.58;;;0.80;;
15295;SDS011;7749;49.964;7.890;2023-05-10T14:53:06;2.03;;;0.80;;
15295;SDS011;7749;49.964;7.890;2023-05-10T14:55:34;2.53;;;1.15;;
15295;SDS011;7749;49.964;7.890;2023-05-10T14:58:04;2.13;;;0.70;;
15295;SDS011;7749;49.964;7.890;2023-05-10T15:00:32;2.63;;;1.02;;
15295;SDS011;7749;49.964;7.890;2023-05-10T15:03:00;1.33;;;0.75;;
15295;SDS011;7749;49.964;7.890;2023-05-10T15:05:28;1.48;;;0.73;;
15295;SDS011;7749;49.964;7.890;2023-05-10T15:07:57;3.17;;;1.10;;
15295;SDS011;7749;49.964;7.890;2023-05-10T15:10:24;1.67;;;0.82;;
15295;SDS011;7749;49.964;7.890;2023-05-10T15:12:52;3.00;;;1.00;;
15295;SDS011;7749;49.964;7.890;2023-05-10T15:15:20;2.92;;;0.80;;
15295;SDS011;7749;49.964;7.890;2023-05-10T15:17:47;2.50;;;0.80;;
15295;SDS011;7749;49.964;7.890;2023-05-10T15:20:16;1.70;;;0.60;;
15295;SDS011;7749;49.964;7.890;2023-05-10T15:22:43;1.25;;;0.70;;
15295;SDS011;7749;49.964;7.890;2023-05-10T15:25:11;3.97;;;0.95;;
15295;SDS011;7749;49.964;7.890;2023-05-10T15:27:42;3.28;;;1.20;;
15295;SDS011;7749;49.964;7.890;2023-05-10T15:30:10;2.35;;;0.75;;
15295;SDS011;7749;49.964;7.890;2023-05-10T15:32:39;1.60;;;0.90;;
15295;SDS011;7749;49.964;7.890;2023-05-10T15:35:07;3.10;;;0.75;;
15295;SDS011;7749;49.964;7.890;2023-05-10T15:37:38;3.05;;;0.60;;
15295;SDS011;7749;49.964;7.890;2023-05-10T15:40:06;1.73;;;0.68;;
15295;SDS011;7749;49.964;7.890;2023-05-10T15:42:34;1.02;;;0.50;;
15295;SDS011;7749;49.964;7.890;2023-05-10T15:45:02;1.98;;;0.70;;